Big Level, Mississippi
Current Conditions -  °F | °C
As of 6:53 PM on Sunday 21 Dec 2014 (Local Time) from KGPT Reporting Station
Overcast Overcast  
Wind Chill: 57°   Ceiling: 1000
Heat Index: 57°   Visibility: 10mi
Dew Point: 53°   Wind: 6mph
Humidity: 87%   Direction: 70°ENE
Pressure: 30"   Gusts: NA
Location:  30.7239°N, 89.1669°W
Report Text: KGPT 220053Z 07005KT 10SM OVC010 14/12 A3000 RMK AO2 SLP158 T01390117
Loading
Personal Weather Stations






























Interactive Weather Map New forecast layout! Learn more

10-Day Weather Forecast

Advertisements
Track Severe Weather on mobile